Time;durP1;ratioP1;P1;durP2;ratioP2;P2;SDS_P1;SDS_P2;PMS_P1;PMS_P2;Temp;Humidity;BMP_temperature;BMP_pressure;BME280_temperature;BME280_humidity;BME280_pressure;Samples;Min_cycle;Max_cycle;Signal;HPM_P1;HPM_P2
2020/12/02 00:01:01;;;;;;;27.00;10.50;;;;;;;1.52;63.33;100834.88;10498891;28;20007;-48
2020/12/02 00:06:05;;;;;;;27.67;11.38;;;;;;;1.43;63.57;100835.97;10499665;28;20049;-52
2020/12/02 00:11:10;;;;;;;33.15;13.10;;;;;;;1.41;63.61;100831.72;10498512;28;20434;-48
2020/12/02 00:16:13;;;;;;;25.52;9.65;;;;;;;1.55;63.51;100837.38;10502060;28;20114;-49
2020/12/02 00:21:16;;;;;;;26.30;11.57;;;;;;;1.52;62.84;100840.88;10499659;28;20044;-48
2020/12/02 00:26:19;;;;;;;29.48;12.77;;;;;;;1.66;63.04;100835.28;10498372;28;20060;-48
2020/12/02 00:31:21;;;;;;;28.88;12.20;;;;;;;1.88;62.79;100842.41;10497537;28;20040;-50
2020/12/02 00:36:24;;;;;;;30.15;11.63;;;;;;;1.94;62.26;100852.56;10497253;28;20098;-48
2020/12/02 00:41:25;;;;;;;29.52;12.23;;;;;;;1.90;62.64;100846.66;10499512;28;20049;-49
2020/12/02 00:46:27;;;;;;;31.27;14.75;;;;;;;1.91;62.71;100837.13;10475205;28;20393;-48
2020/12/02 00:51:30;;;;;;;28.70;12.02;;;;;;;1.96;62.37;100824.84;10454582;28;20476;-51
2020/12/02 00:56:33;;;;;;;32.73;11.70;;;;;;;2.01;62.48;100825.56;10454588;28;20067;-50
2020/12/02 01:01:40;;;;;;;30.60;13.27;;;;;;;2.18;62.30;100815.47;10456584;28;20049;-49
2020/12/02 01:06:45;;;;;;;30.88;12.98;;;;;;;2.34;61.84;100822.75;10476812;28;20068;-48
2020/12/02 01:11:51;;;;;;;30.98;13.38;;;;;;;2.41;62.43;100819.09;10496603;28;20059;-48
2020/12/02 01:16:55;;;;;;;26.02;12.20;;;;;;;2.52;62.15;100814.34;10497551;28;20086;-49
2020/12/02 01:22:03;;;;;;;33.25;12.55;;;;;;;2.41;62.39;100812.13;10497129;28;20416;-50
2020/12/02 01:27:17;;;;;;;30.98;11.60;;;;;;;2.38;62.28;100827.81;10497387;28;20043;-50
2020/12/02 01:32:19;;;;;;;28.90;12.65;;;;;;;2.40;62.12;100817.38;10498131;28;20048;-48
2020/12/02 01:37:34;;;;;;;33.95;12.30;;;;;;;2.35;62.26;100817.53;10500333;28;20048;-48
2020/12/02 01:42:36;;;;;;;31.52;11.75;;;;;;;2.31;62.46;100810.75;10497681;28;20432;-51
2020/12/02 01:47:51;;;;;;;32.85;12.43;;;;;;;2.33;62.29;100818.47;10497230;28;20433;-49
2020/12/02 01:53:04;;;;;;;28.73;11.52;;;;;;;2.39;61.95;100824.31;10505746;28;20052;-48
2020/12/02 01:58:15;;;;;;;30.35;12.15;;;;;;;2.43;61.46;100835.44;10505366;28;20385;-52
2020/12/02 02:03:18;;;;;;;30.67;12.05;;;;;;;2.45;61.78;100823.25;10505272;28;20050;-49
2020/12/02 02:08:24;;;;;;;28.27;12.73;;;;;;;2.47;61.43;100821.47;10508748;28;20044;-53
2020/12/02 02:14:07;;;;;;;28.17;12.20;;;;;;;2.49;61.66;100822.25;10510724;28;20044;-53
2020/12/02 02:19:17;;;;;;;28.90;12.35;;;;;;;2.43;62.03;100836.31;10506339;28;20040;-48
2020/12/02 02:24:21;;;;;;;31.63;12.00;;;;;;;2.41;61.62;100824.28;10503297;28;20152;-49
2020/12/02 02:29:29;;;;;;;24.43;11.10;;;;;;;2.29;61.65;100836.75;10507187;28;20056;-49
2020/12/02 02:34:32;;;;;;;29.20;12.32;;;;;;;2.25;61.80;100829.97;10503573;28;20052;-52
2020/12/02 02:39:34;;;;;;;24.60;11.25;;;;;;;2.24;61.78;100833.44;10504140;28;20048;-50
2020/12/02 02:44:38;;;;;;;28.00;11.95;;;;;;;2.25;61.43;100834.31;10502786;28;20477;-51
2020/12/02 02:49:39;;;;;;;25.65;11.50;;;;;;;2.26;61.21;100839.44;10503138;28;20056;-51
2020/12/02 02:54:41;;;;;;;28.40;11.35;;;;;;;2.29;61.01;100834.16;10502971;28;20064;-49
2020/12/02 02:59:44;;;;;;;27.80;11.57;;;;;;;2.21;61.10;100845.66;10501524;28;20051;-51
2020/12/02 03:04:46;;;;;;;47.63;13.40;;;;;;;2.17;61.31;100836.31;10500847;28;20044;-50
2020/12/02 03:09:47;;;;;;;39.08;11.68;;;;;;;1.97;60.89;100842.97;10500099;28;20098;-47
2020/12/02 03:14:50;;;;;;;39.88;13.65;;;;;;;1.93;61.00;100836.16;10502473;28;20052;-48
2020/12/02 03:19:58;;;;;;;26.38;10.55;;;;;;;1.95;61.48;100825.78;10501098;28;20044;-49
2020/12/02 03:25:00;;;;;;;25.90;10.25;;;;;;;1.94;61.76;100826.66;10500272;28;20045;-48
2020/12/02 03:30:04;;;;;;;25.38;11.45;;;;;;;1.93;61.53;100831.00;10500444;28;20044;-51
2020/12/02 03:35:06;;;;;;;26.67;11.20;;;;;;;1.90;61.65;100833.69;10501256;28;20492;-49
2020/12/02 03:40:08;;;;;;;30.60;12.07;;;;;;;1.89;61.30;100834.59;10500196;28;20047;-51
2020/12/02 03:45:11;;;;;;;29.88;11.60;;;;;;;1.96;61.49;100827.47;10500788;28;20063;-50
2020/12/02 03:50:14;;;;;;;25.17;10.55;;;;;;;1.96;60.94;100843.00;10499690;28;20143;-48
2020/12/02 03:55:16;;;;;;;23.33;10.17;;;;;;;1.78;61.25;100850.47;10499807;28;20056;-50
2020/12/02 04:00:18;;;;;;;19.08;9.57;;;;;;;1.72;61.39;100850.63;10499388;28;20037;-48
2020/12/02 04:05:20;;;;;;;30.05;11.75;;;;;;;1.61;61.69;100852.72;10503346;28;20053;-56
2020/12/02 04:10:22;;;;;;;24.17;11.20;;;;;;;1.67;61.74;100857.72;10499438;28;20054;-48
2020/12/02 04:15:25;;;;;;;28.13;11.75;;;;;;;1.76;61.73;100859.19;10499010;28;20056;-50
2020/12/02 04:20:27;;;;;;;23.80;11.07;;;;;;;1.76;61.67;100856.59;10498799;28;20075;-50
2020/12/02 04:25:29;;;;;;;24.27;10.77;;;;;;;1.78;61.68;100858.22;10500568;28;20147;-52
2020/12/02 04:30:31;;;;;;;25.00;11.80;;;;;;;1.79;61.30;100864.28;10500856;28;20105;-57
2020/12/02 04:35:33;;;;;;;30.58;11.63;;;;;;;1.65;60.43;100867.28;10502737;28;20048;-51
2020/12/02 04:40:38;;;;;;;35.60;12.43;;;;;;;1.27;60.26;100871.84;10501838;28;20071;-48
2020/12/02 04:45:40;;;;;;;25.58;11.88;;;;;;;1.23;61.08;100859.88;10497569;28;20492;-50
2020/12/02 04:50:42;;;;;;;23.15;10.82;;;;;;;1.34;60.62;100868.19;10497398;28;20041;-49
2020/12/02 04:55:47;;;;;;;26.33;11.02;;;;;;;1.41;61.14;100861.06;10497785;28;20060;-49
2020/12/02 05:00:50;;;;;;;24.83;11.38;;;;;;;1.52;60.84;100858.19;10495369;28;20041;-50
2020/12/02 05:06:01;;;;;;;27.75;12.68;;;;;;;1.57;60.41;100864.94;10497529;28;20107;-50
2020/12/02 05:11:09;;;;;;;25.10;11.73;;;;;;;1.53;60.51;100878.84;10496964;28;20098;-48
2020/12/02 05:16:12;;;;;;;25.58;10.80;;;;;;;1.52;60.32;100882.34;10496721;28;20063;-53
2020/12/02 05:21:21;;;;;;;27.20;12.85;;;;;;;1.41;59.51;100884.38;10479882;28;20172;-51
2020/12/02 05:26:23;;;;;;;24.27;9.90;;;;;;;1.18;60.21;100891.97;10462028;28;20049;-51
2020/12/02 05:31:31;;;;;;;25.58;10.80;;;;;;;1.08;60.29;100888.78;10463776;28;20136;-52
2020/12/02 05:36:35;;;;;;;27.95;11.55;;;;;;;1.10;60.17;100899.94;10464270;28;20045;-52
2020/12/02 05:41:38;;;;;;;29.00;11.30;;;;;;;1.13;60.47;100899.84;10497400;28;20396;-50
2020/12/02 05:46:45;;;;;;;19.77;8.80;;;;;;;1.20;60.43;100914.34;10505952;28;20139;-52
2020/12/02 05:51:50;;;;;;;22.98;9.27;;;;;;;1.29;60.04;100916.69;10506700;28;20036;-52
2020/12/02 05:56:52;;;;;;;23.00;9.68;;;;;;;1.37;60.16;100904.38;10504556;28;20052;-51
2020/12/02 06:01:58;;;;;;;20.50;9.65;;;;;;;1.46;60.13;100905.00;10504874;28;20067;-53
2020/12/02 06:07:01;;;;;;;24.63;8.88;;;;;;;1.42;59.90;100911.16;10482686;28;20056;-52
2020/12/02 06:12:04;;;;;;;27.05;10.57;;;;;;;1.26;59.70;100914.19;10483489;28;20534;-52
2020/12/02 06:17:10;;;;;;;31.20;11.70;;;;;;;1.30;59.67;100920.13;10463000;28;20131;-53
2020/12/02 06:22:12;;;;;;;32.22;9.82;;;;;;;1.25;60.10;100920.25;10489094;28;20079;-51
2020/12/02 06:27:40;;;;;;;35.53;13.95;;;;;;;1.20;60.15;100927.31;10505583;28;20129;-54
2020/12/02 06:33:02;;;;;;;43.85;15.68;;;;;;;1.23;60.09;100928.94;10504672;28;20447;-59
2020/12/02 06:38:27;;;;;;;54.45;18.75;;;;;;;1.26;59.62;100931.44;10502007;28;20075;-53
2020/12/02 06:43:30;;;;;;;44.85;17.35;;;;;;;1.19;59.39;100928.19;10501810;28;20052;-51
2020/12/02 06:48:37;;;;;;;37.35;15.93;;;;;;;1.28;59.73;100929.69;10502455;28;20380;-54
2020/12/02 06:53:39;;;;;;;40.28;17.52;;;;;;;1.27;59.22;100925.41;10500826;28;20151;-54
2020/12/02 06:58:40;;;;;;;47.60;16.88;;;;;;;1.15;59.62;100934.34;10501191;28;20059;-52
2020/12/02 07:03:44;;;;;;;40.40;11.25;;;;;;;1.24;59.96;100933.25;10501998;28;20054;-50
2020/12/02 07:08:49;;;;;;;38.75;14.38;;;;;;;1.25;59.72;100940.97;10500809;28;20048;-53
2020/12/02 07:13:54;;;;;;;39.65;14.85;;;;;;;1.19;59.52;100933.34;10500995;28;20059;-54
2020/12/02 07:18:59;;;;;;;48.67;18.60;;;;;;;1.15;58.97;100940.38;10499899;28;20102;-51
2020/12/02 07:24:03;;;;;;;56.15;17.08;;;;;;;1.25;58.86;100930.59;10474993;28;20508;-54
2020/12/02 07:29:13;;;;;;;40.55;14.43;;;;;;;1.28;58.30;100930.53;10461086;28;20049;-50
2020/12/02 07:34:18;;;;;;;44.42;16.77;;;;;;;1.43;58.50;100931.00;10460365;28;20091;-56
2020/12/02 07:39:22;;;;;;;31.02;12.57;;;;;;;1.52;57.96;100929.00;10459674;28;20389;-51
2020/12/02 07:44:26;;;;;;;38.92;14.35;;;;;;;1.58;58.10;100933.16;10497464;28;20139;-52
2020/12/02 07:49:30;;;;;;;27.38;12.85;;;;;;;1.56;58.13;100929.75;10465936;28;20131;-52
2020/12/02 07:54:31;;;;;;;;;;;;;;;1.83;58.64;100922.94;10459471;28;20386;-50
2020/12/02 07:59:34;;;;;;;38.90;16.33;;;;;;;2.29;57.94;100922.38;10459924;28;19924;-50
2020/12/02 08:04:52;;;;;;;50.13;19.13;;;;;;;2.50;57.95;100915.66;10471971;28;20393;-54
2020/12/02 08:09:59;;;;;;;87.32;32.45;;;;;;;2.51;58.26;100916.50;10497084;28;20066;-51
2020/12/02 08:15:05;;;;;;;61.40;22.70;;;;;;;2.57;56.69;100918.88;10499247;28;20052;-51
2020/12/02 08:20:27;;;;;;;84.70;34.45;;;;;;;2.56;57.36;100930.19;10495490;28;20044;-52
2020/12/02 08:25:35;;;;;;;63.70;24.05;;;;;;;2.69;58.10;100921.09;10457993;28;20052;-51
2020/12/02 08:30:38;;;;;;;48.58;21.23;;;;;;;3.07;57.50;100929.31;10457677;28;20461;-51
2020/12/02 08:35:42;;;;;;;45.47;18.03;;;;;;;3.37;56.63;100931.75;10457184;28;20064;-50
2020/12/02 08:40:49;;;;;;;49.63;18.45;;;;;;;3.14;55.62;100933.44;10466334;28;20040;-51
2020/12/02 08:45:56;;;;;;;49.40;19.85;;;;;;;2.92;56.01;100922.06;10496235;28;20041;-52
2020/12/02 08:50:58;;;;;;;48.63;21.17;;;;;;;2.98;56.36;100924.44;10497651;28;20044;-53
2020/12/02 08:56:01;;;;;;;55.35;21.50;;;;;;;3.06;56.29;100914.66;10499473;28;20444;-51
2020/12/02 09:01:03;;;;;;;50.85;22.70;;;;;;;3.17;56.48;100927.25;10499140;28;20465;-51
2020/12/02 09:06:05;;;;;;;52.45;19.83;;;;;;;3.25;56.57;100920.03;10498613;28;20078;-52
2020/12/02 09:11:07;;;;;;;37.33;16.80;;;;;;;3.35;55.44;100926.59;10497423;28;20059;-54
2020/12/02 09:16:09;;;;;;;34.08;16.15;;;;;;;3.53;54.99;100914.69;10497490;28;20059;-53
2020/12/02 09:21:11;;;;;;;34.60;15.30;;;;;;;3.56;54.55;100919.78;10497923;28;20048;-52
2020/12/02 09:26:17;;;;;;;27.58;13.32;;;;;;;3.44;54.62;100909.81;10497531;28;20048;-54
2020/12/02 09:31:21;;;;;;;39.47;15.27;;;;;;;3.31;55.19;100916.38;10497795;28;20139;-54
2020/12/02 09:36:23;;;;;;;;;;;;;;;3.99;54.47;100915.56;10498003;28;20048;-52
2020/12/02 09:41:53;;;;;;;24.02;9.73;;;;;;;5.38;54.42;100919.34;10500502;28;20023;-52
2020/12/02 09:46:59;;;;;;;22.88;10.85;;;;;;;5.29;52.11;100914.56;10498167;28;20485;-55
2020/12/02 09:52:26;;;;;;;26.60;11.80;;;;;;;4.35;52.77;100910.66;10494318;28;20520;-54
2020/12/02 09:57:30;;;;;;;34.25;11.43;;;;;;;3.88;53.21;100909.94;10461879;28;20067;-51
2020/12/02 10:02:47;;;;;;;38.60;16.00;;;;;;;2.97;52.63;100909.75;10483973;28;20144;-54
2020/12/02 10:08:03;;;;;;;41.97;17.75;;;;;;;2.61;53.10;100909.25;10497338;28;20040;-52
2020/12/02 10:13:32;;;;;;;41.08;15.00;;;;;;;2.30;53.09;100902.47;10503295;28;20044;-51
2020/12/02 10:18:55;;;;;;;42.20;16.45;;;;;;;1.89;54.00;100901.16;10496161;28;20082;-53
2020/12/02 10:24:05;;;;;;;41.17;14.98;;;;;;;1.84;54.46;100890.91;10501112;28;20044;-54
2020/12/02 10:29:13;;;;;;;37.58;13.25;;;;;;;1.62;54.13;100893.28;10479730;28;20358;-53
2020/12/02 10:34:21;;;;;;;30.92;14.00;;;;;;;1.48;54.34;100891.13;10505323;28;20076;-53
2020/12/02 10:39:27;;;;;;;28.73;13.05;;;;;;;1.32;54.13;100884.66;10505945;28;20036;-51
2020/12/02 10:44:46;;;;;;;33.35;13.27;;;;;;;1.06;54.32;100880.22;10500934;28;20048;-54
2020/12/02 10:49:47;;;;;;;32.25;12.50;;;;;;;0.87;55.21;100885.88;10502366;28;20036;-53
2020/12/02 10:54:50;;;;;;;35.03;12.85;;;;;;;0.81;55.32;100878.25;10502693;28;20064;-52
2020/12/02 10:59:57;;;;;;;26.67;11.85;;;;;;;0.81;55.75;100882.59;10502833;28;20416;-54
2020/12/02 11:04:59;;;;;;;24.40;11.90;;;;;;;0.76;55.57;100882.69;10503505;28;20052;-54
2020/12/02 11:10:06;;;;;;;30.25;12.00;;;;;;;0.69;55.94;100884.59;10499997;28;20070;-52
2020/12/02 11:15:25;;;;;;;25.35;10.90;;;;;;;0.52;56.03;100875.56;10501893;28;20554;-52
2020/12/02 11:20:34;;;;;;;28.67;11.80;;;;;;;0.43;56.47;100877.50;10491583;28;20045;-52
2020/12/02 11:25:45;;;;;;;32.25;13.45;;;;;;;0.32;55.94;100874.31;10502138;28;20055;-51
2020/12/02 11:30:48;;;;;;;24.00;11.07;;;;;;;0.12;56.47;100871.34;10467126;28;20470;-51
2020/12/02 11:36:25;;;;;;;33.40;13.80;;;;;;;-0.01;56.83;100878.53;10482357;28;20072;-53
2020/12/02 11:41:35;;;;;;;28.75;12.43;;;;;;;-0.11;56.64;100865.00;10500632;28;20699;-52
2020/12/02 11:46:39;;;;;;;32.90;13.57;;;;;;;-0.15;56.86;100865.09;10499379;28;20052;-53
2020/12/02 11:51:53;;;;;;;29.55;13.43;;;;;;;-0.10;57.13;100861.50;10500768;28;20455;-56
2020/12/02 11:56:57;;;;;;;32.72;13.57;;;;;;;-0.20;56.74;100870.38;10504186;28;20060;-51
2020/12/02 12:02:19;;;;;;;33.28;13.50;;;;;;;-0.27;57.25;100863.63;10503477;28;20048;-54
2020/12/02 12:07:30;;;;;;;32.72;12.40;;;;;;;-0.19;56.98;100871.22;10494824;28;20132;-54
2020/12/02 12:12:42;;;;;;;26.77;12.38;;;;;;;-0.21;57.06;100866.09;10458760;28;20044;-54
2020/12/02 12:17:47;;;;;;;32.30;13.13;;;;;;;-0.17;56.68;100857.38;10458788;28;20489;-53
2020/12/02 12:22:54;;;;;;;33.58;13.48;;;;;;;-0.21;56.57;100858.34;10490818;28;20045;-57
2020/12/02 12:27:59;;;;;;;29.77;12.30;;;;;;;-0.25;56.82;100867.91;10500134;28;20071;-54
2020/12/02 12:33:09;;;;;;;31.38;15.05;;;;;;;-0.23;56.55;100860.09;10497917;28;20048;-54
2020/12/02 12:38:21;;;;;;;25.52;12.05;;;;;;;-0.25;56.60;100860.16;10469298;28;20481;-53
2020/12/02 12:43:28;;;;;;;28.75;13.10;;;;;;;-0.31;56.92;100860.28;10484448;28;20040;-54
2020/12/02 12:48:32;;;;;;;31.83;12.18;;;;;;;-0.40;56.79;100854.44;10496237;28;20059;-54
2020/12/02 12:53:34;;;;;;;26.65;12.30;;;;;;;-0.44;57.19;100852.81;10497055;28;20056;-54
2020/12/02 12:58:36;;;;;;;30.38;11.15;;;;;;;-0.67;57.42;100854.16;10498241;28;20381;-51
2020/12/02 13:03:38;;;;;;;22.60;9.60;;;;;;;-0.82;58.08;100855.31;10499636;28;20041;-54
2020/12/02 13:08:49;;;;;;;29.00;12.23;;;;;;;-0.97;58.13;100853.88;10497625;28;20048;-54
2020/12/02 13:13:59;;;;;;;30.75;11.00;;;;;;;-1.05;58.06;100854.88;10497394;28;20485;-54
2020/12/02 13:19:13;;;;;;;30.45;12.27;;;;;;;-1.19;58.44;100845.69;10497579;28;20476;-51
2020/12/02 13:24:30;;;;;;;38.88;14.40;;;;;;;-1.20;58.69;100840.53;10473991;28;20044;-54
2020/12/02 13:29:36;;;;;;;35.15;11.68;;;;;;;-1.30;58.63;100849.34;10497291;28;20131;-54
2020/12/02 13:34:39;;;;;;;22.88;7.78;;;;;;;-1.36;58.66;100836.56;10498188;28;20074;-52
2020/12/02 13:39:41;;;;;;;31.60;10.57;;;;;;;-1.47;58.89;100845.34;10495916;28;20147;-51
2020/12/02 13:44:50;;;;;;;23.33;7.88;;;;;;;-1.55;59.01;100836.03;10480005;28;20063;-52
2020/12/02 13:49:55;;;;;;;22.30;9.35;;;;;;;-1.64;58.93;100831.88;10505639;28;20056;-51
2020/12/02 13:55:10;;;;;;;25.25;8.93;;;;;;;-1.70;59.17;100831.97;10499925;28;20088;-54
2020/12/02 14:00:23;;;;;;;19.30;8.00;;;;;;;-1.77;59.30;100835.53;10505802;28;20044;-52
2020/12/02 14:05:36;;;;;;;26.90;9.30;;;;;;;-1.88;58.96;100834.00;10507574;28;20080;-51
2020/12/02 14:10:38;;;;;;;30.03;9.90;;;;;;;-1.82;59.15;100821.88;10506072;28;20041;-52
2020/12/02 14:15:41;;;;;;;23.85;9.70;;;;;;;-1.82;58.87;100821.88;10504457;28;20409;-51
2020/12/02 14:20:44;;;;;;;27.48;11.02;;;;;;;-1.90;58.81;100825.44;10503707;28;20052;-54
2020/12/02 14:25:46;;;;;;;24.63;9.93;;;;;;;-1.87;59.00;100830.53;10503994;28;20392;-52
2020/12/02 14:30:50;;;;;;;12.13;4.82;;;;;;;-1.96;58.63;100838.41;10504292;28;20044;-52
2020/12/02 14:35:53;;;;;;;33.90;11.43;;;;;;;-2.12;58.52;100834.38;10503754;28;20570;-52
2020/12/02 14:40:55;;;;;;;27.63;10.57;;;;;;;-2.13;58.85;100835.22;10502783;28;20051;-52
2020/12/02 14:45:57;;;;;;;20.37;9.50;;;;;;;-2.20;59.16;100837.06;10502300;28;20178;-52
2020/12/02 14:51:00;;;;;;;25.73;9.45;;;;;;;-2.21;59.22;100850.81;10502891;28;20386;-52
2020/12/02 14:56:16;;;;;;;12.60;5.13;;;;;;;-2.26;58.95;100842.28;10502539;28;20504;-54
2020/12/02 15:01:18;;;;;;;26.88;10.93;;;;;;;-2.34;59.31;100831.25;10504639;28;20333;-51
2020/12/02 15:06:54;;;;;;;26.67;10.23;;;;;;;-2.35;59.16;100834.69;10501959;28;20056;-51
2020/12/02 15:12:00;;;;;;;22.23;7.15;;;;;;;-2.34;59.00;100834.69;10481015;28;20393;-51
2020/12/02 15:17:05;;;;;;;20.48;7.75;;;;;;;-2.40;59.14;100842.50;10469255;28;20056;-52
2020/12/02 15:22:10;;;;;;;32.65;10.85;;;;;;;-2.46;59.33;100832.28;10484921;28;20045;-52
2020/12/02 15:27:16;;;;;;;21.15;7.50;;;;;;;-2.46;59.58;100842.59;10501167;28;20110;-51
2020/12/02 15:32:26;;;;;;;26.13;9.73;;;;;;;-2.43;59.96;100847.69;10501365;28;20036;-53
2020/12/02 15:37:41;;;;;;;28.00;9.95;;;;;;;-2.35;59.88;100845.84;10500996;28;20059;-50
2020/12/02 15:43:02;;;;;;;19.58;7.43;;;;;;;-2.41;59.21;100835.63;10499267;28;20433;-52
2020/12/02 15:48:08;;;;;;;33.53;13.43;;;;;;;-2.46;59.31;100834.88;10500432;28;20090;-53
2020/12/02 15:53:28;;;;;;;30.92;12.25;;;;;;;-2.56;59.25;100833.25;10499954;28;20456;-52
2020/12/02 15:58:55;;;;;;;35.42;11.10;;;;;;;-2.70;59.21;100845.47;10499004;28;20056;-51
2020/12/02 16:04:13;;;;;;;23.08;8.57;;;;;;;-2.84;59.44;100859.34;10496154;28;20488;-53
2020/12/02 16:09:17;;;;;;;35.42;14.13;;;;;;;-2.83;59.45;100855.06;10477785;28;20461;-54
2020/12/02 16:14:19;;;;;;;29.92;9.50;;;;;;;-2.91;59.33;100851.72;10497396;28;20048;-53
2020/12/02 16:19:22;;;;;;;26.50;11.63;;;;;;;-3.05;59.58;100847.59;10499034;28;20139;-50
2020/12/02 16:24:25;;;;;;;30.95;12.32;;;;;;;-3.05;59.62;100847.59;10495893;28;20048;-54
2020/12/02 16:29:27;;;;;;;21.38;8.88;;;;;;;-3.07;59.47;100841.59;10496608;28;20519;-54
2020/12/02 16:34:28;;;;;;;29.38;10.88;;;;;;;-3.13;59.61;100841.69;10498636;28;20063;-59
2020/12/02 16:39:32;;;;;;;22.05;8.52;;;;;;;-3.12;59.49;100843.38;10498824;28;20049;-50
2020/12/02 16:44:39;;;;;;;;;;;;;;;-3.20;59.91;100834.03;10498732;28;20441;-54
2020/12/02 16:50:00;;;;;;;22.00;9.35;;;;;;;-3.24;59.64;100836.63;10498910;28;19935;-54
2020/12/02 16:55:24;;;;;;;29.83;10.23;;;;;;;-3.22;60.03;100833.22;10498729;28;20068;-57
2020/12/02 17:00:31;;;;;;;27.05;10.63;;;;;;;-3.25;60.00;100831.53;10497899;28;20048;-55
2020/12/02 17:05:32;;;;;;;21.95;9.48;;;;;;;-3.24;60.07;100839.19;10498358;28;20052;-53
2020/12/02 17:10:35;;;;;;;13.77;5.63;;;;;;;-3.16;59.89;100830.56;10496379;28;20054;-54
2020/12/02 17:16:09;;;;;;;35.25;14.18;;;;;;;-3.17;59.88;100824.59;10498049;28;20060;-54
2020/12/02 17:21:21;;;;;;;26.35;10.30;;;;;;;-3.17;59.94;100832.28;10496626;28;20049;-54
2020/12/02 17:26:35;;;;;;;26.75;9.70;;;;;;;-3.19;60.07;100835.75;10497568;28;20076;-51
2020/12/02 17:32:05;;;;;;;27.63;9.20;;;;;;;-3.24;60.30;100841.78;10497133;28;20461;-51
2020/12/02 17:37:22;;;;;;;33.53;9.52;;;;;;;-3.23;60.06;100832.38;10495750;28;20072;-51
2020/12/02 17:42:44;;;;;;;24.17;9.20;;;;;;;-3.21;60.20;100840.91;10495840;28;20094;-53
2020/12/02 17:48:01;;;;;;;24.67;9.80;;;;;;;-3.27;60.20;100836.66;10455541;28;20055;-53
2020/12/02 17:53:14;;;;;;;27.33;10.65;;;;;;;-3.28;60.24;100834.97;10495586;28;20060;-53
2020/12/02 17:58:32;;;;;;;34.47;14.67;;;;;;;-3.27;60.20;100828.94;10495542;28;20060;-50
2020/12/02 18:03:45;;;;;;;21.60;8.48;;;;;;;-3.32;60.21;100823.03;10498407;28;20051;-54
2020/12/02 18:09:07;;;;;;;18.47;7.07;;;;;;;-3.35;60.11;100825.63;10494984;28;20057;-55
2020/12/02 18:14:39;;;;;;;22.38;8.50;;;;;;;-3.38;60.11;100820.50;10496269;28;20537;-50
2020/12/02 18:19:52;;;;;;;31.48;13.27;;;;;;;-3.39;60.03;100817.94;10498170;28;20478;-50
2020/12/02 18:25:14;;;;;;;24.55;9.57;;;;;;;-3.32;59.88;100817.03;10496416;28;20595;-51
2020/12/02 18:30:30;;;;;;;31.17;10.90;;;;;;;-3.36;59.97;100807.63;10496722;28;20055;-54
2020/12/02 18:35:39;;;;;;;27.23;10.32;;;;;;;-3.41;60.10;100807.69;10503421;28;20048;-51
2020/12/02 18:40:56;;;;;;;28.58;9.70;;;;;;;-3.50;60.17;100795.78;10502626;28;20049;-50
2020/12/02 18:46:02;;;;;;;30.33;11.90;;;;;;;-3.52;60.07;100796.66;10502522;28;20046;-53
2020/12/02 18:51:04;;;;;;;29.08;10.60;;;;;;;-3.54;60.41;100808.66;10501705;28;20045;-52
2020/12/02 18:56:19;;;;;;;23.10;9.75;;;;;;;-3.51;60.44;100808.63;10502020;28;20057;-53
2020/12/02 19:01:22;;;;;;;25.92;11.98;;;;;;;-3.44;60.04;100812.88;10501731;28;20050;-53
2020/12/02 19:06:24;;;;;;;35.70;10.87;;;;;;;-3.46;59.72;100809.44;10502480;28;20040;-55
2020/12/02 19:11:42;;;;;;;32.17;12.77;;;;;;;-3.58;59.74;100807.00;10501328;28;20052;-53
2020/12/02 19:16:58;;;;;;;25.95;10.23;;;;;;;-3.58;59.88;100807.00;10503057;28;20473;-53
2020/12/02 19:22:20;;;;;;;15.95;5.85;;;;;;;-3.66;59.96;100809.66;10502581;28;20052;-51
2020/12/02 19:27:35;;;;;;;26.58;9.75;;;;;;;-3.74;60.19;100807.13;10501688;28;20048;-53
2020/12/02 19:32:51;;;;;;;30.42;12.95;;;;;;;-3.80;60.16;100802.06;10501518;28;20044;-50
2020/12/02 19:38:12;;;;;;;30.58;10.18;;;;;;;-3.83;60.33;100811.50;10501819;28;20145;-50
2020/12/02 19:43:33;;;;;;;20.45;8.70;;;;;;;-3.87;60.17;100813.25;10501707;28;20400;-54
2020/12/02 19:48:39;;;;;;;24.58;8.88;;;;;;;-3.88;60.43;100811.53;10502126;28;20133;-52
2020/12/02 19:53:45;;;;;;;29.20;12.18;;;;;;;-3.89;60.31;100807.25;10501210;28;20048;-53
2020/12/02 19:59:28;;;;;;;22.92;8.25;;;;;;;-3.90;60.33;100822.72;10501066;28;20044;-51
2020/12/02 20:04:43;;;;;;;28.92;12.25;;;;;;;-3.90;60.23;100820.13;10380380;28;20513;-52
2020/12/02 20:10:12;;;;;;;24.33;9.02;;;;;;;-3.88;60.23;100821.81;10499582;28;20105;-54
2020/12/02 20:15:19;;;;;;;33.65;12.35;;;;;;;-3.90;60.47;100820.97;10496750;28;20062;-55
2020/12/02 20:20:31;;;;;;;20.23;8.40;;;;;;;-3.87;60.18;100825.25;10498214;28;20139;-51
2020/12/02 20:25:39;;;;;;;21.67;9.52;;;;;;;-3.88;60.17;100821.81;10497877;28;20447;-54
2020/12/02 20:30:44;;;;;;;32.28;11.20;;;;;;;-3.94;60.40;100819.31;10499644;28;20389;-51
2020/12/02 20:35:46;;;;;;;12.50;5.43;;;;;;;-3.96;60.23;100821.88;10498962;28;20062;-52
2020/12/02 20:40:49;;;;;;;18.97;6.57;;;;;;;-3.96;60.22;100806.47;10496037;28;20040;-54
2020/12/02 20:45:53;;;;;;;29.50;12.50;;;;;;;-3.97;60.60;100796.22;10492811;28;20067;-51
2020/12/02 20:51:03;;;;;;;27.15;11.00;;;;;;;-3.95;60.42;100802.19;10492128;28;20048;-54
2020/12/02 20:56:16;;;;;;;28.98;9.73;;;;;;;-3.85;59.84;100802.94;10491681;28;20059;-51
2020/12/02 21:01:20;;;;;;;25.88;10.70;;;;;;;-3.82;59.82;100798.63;10493769;28;20480;-54
2020/12/02 21:06:25;;;;;;;19.75;7.03;;;;;;;-3.89;59.80;100791.00;10496014;28;20045;-51
2020/12/02 21:11:26;;;;;;;27.30;11.35;;;;;;;-3.99;59.99;100796.22;10498209;28;20481;-54
2020/12/02 21:16:36;;;;;;;21.48;7.07;;;;;;;-4.03;60.05;100799.69;10500165;28;20045;-52
2020/12/02 21:22:00;;;;;;;29.77;11.07;;;;;;;-4.01;59.94;100797.94;10496381;28;20041;-54
2020/12/02 21:27:12;;;;;;;19.45;7.05;;;;;;;-4.01;59.71;100792.81;10496993;28;20214;-54
2020/12/02 21:32:29;;;;;;;15.13;5.28;;;;;;;-4.12;59.92;100801.47;10496952;28;20079;-51
2020/12/02 21:37:33;;;;;;;21.35;8.82;;;;;;;-4.18;60.22;100810.91;10496151;28;20049;-52
2020/12/02 21:42:50;;;;;;;30.75;10.32;;;;;;;-4.15;60.25;100801.50;10495334;28;20049;-51
2020/12/02 21:48:04;;;;;;;16.88;7.63;;;;;;;-4.20;60.28;100802.38;10495900;28;20048;-60
2020/12/02 21:53:51;;;;;;;26.02;10.98;;;;;;;-4.24;60.45;100803.25;10497715;28;20045;-54
2020/12/02 21:58:55;;;;;;;27.38;8.60;;;;;;;-4.24;60.51;100790.41;10498209;28;20456;-51
2020/12/02 22:04:29;;;;;;;26.73;10.18;;;;;;;-4.26;60.38;100776.72;10495462;28;20053;-54
2020/12/02 22:09:44;;;;;;;21.77;7.68;;;;;;;-4.25;60.11;100783.59;10462261;28;20053;-54
2020/12/02 22:14:50;;;;;;;13.82;6.20;;;;;;;-4.28;60.33;100777.59;10502007;28;20052;-55
2020/12/02 22:20:05;;;;;;;17.15;7.55;;;;;;;-4.33;60.29;100775.09;10503471;28;20363;-61
2020/12/02 22:25:18;;;;;;;26.80;8.20;;;;;;;-4.37;60.41;100768.28;10502662;28;20048;-53
2020/12/02 22:30:26;;;;;;;20.98;8.05;;;;;;;-4.32;60.33;100771.66;10504487;28;20051;-51
2020/12/02 22:35:46;;;;;;;17.52;6.13;;;;;;;-4.25;59.88;100763.06;10502924;28;20048;-53
2020/12/02 22:41:14;;;;;;;19.45;8.23;;;;;;;-4.25;59.81;100762.19;10502286;28;20358;-52
2020/12/02 22:46:30;;;;;;;11.50;4.07;;;;;;;-4.28;59.62;100760.50;10502658;28;20060;-52
2020/12/02 22:51:32;;;;;;;18.67;6.72;;;;;;;-4.35;59.88;100755.41;10503009;28;20520;-51
2020/12/02 22:56:36;;;;;;;14.80;6.37;;;;;;;-4.43;59.91;100752.91;10503051;28;20147;-51
2020/12/02 23:01:40;;;;;;;13.27;5.57;;;;;;;-4.49;59.93;100758.09;10502357;28;20072;-51
2020/12/02 23:06:46;;;;;;;19.15;7.47;;;;;;;-4.50;60.04;100746.09;10501069;28;20051;-52
2020/12/02 23:11:55;;;;;;;30.38;9.32;;;;;;;-4.52;59.98;100745.28;10500762;28;20037;-52
2020/12/02 23:17:02;;;;;;;8.32;3.40;;;;;;;-4.48;59.61;100744.38;10499452;28;20230;-53
2020/12/02 23:22:04;;;;;;;19.98;7.55;;;;;;;-4.44;59.56;100743.50;10501081;28;20051;-51